Golden, CO (80401)

5:12 PM MDT on October 30, 2014 (GMT -0600)
Lookout Pointe | Change Station
CLOSE
Current Station
Personal Weather Station
Location: Golden, CO
Elevation: 5940 ft
Nearby Weather Stations

Elev 5940 ft 39.75 °N, 105.23 °W | Updated 11 seconds ago

Clear
Clear
56.2 °F
Feels Like 56.2 °F
N
1.0
Wind Variable Wind from NE
Gusts 6.0 mph

Today
High -- | Low -- °F
--% Chance of Precip.
Yesterday
High -- | Low -- °F
Precip. -- in
7:27 AM 6:01 PM
Waxing Crescent, 48% visible
Pressure 30.35 in
Visibility 70.0 miles
Clouds Clear
Dew Point 28 °F
Humidity 33%
Rainfall 0.00 in
Snow Depth Not available.
UV 1 out of 12
Pollen 1.20 out of 12
Air Quality Not available.
Flu Activity Not available.
METAR KBJC 302250Z 07007KT 70SM SKC 15/M03 A3035

More Conditions Fewer Conditions

Pressure 30.35 in
Visibility 70.0 miles
Clouds Clear
Dew Point 28 °F
Humidity 33%
Rainfall 0.00 in
Snow Depth Not available.
UV 1 out of 12
Pollen 1.20 out of 12
Air Quality Not available.
Flu Activity Not available.
METAR KBJC 302250Z 07007KT 70SM SKC 15/M03 A3035

More Conditions Fewer Conditions

10-Day Weather Forecast

Almanac

Astronomy

Oct. 30, 2014 Rise Set
Actual Time
Civil Twilight
Nautical Twilight
Astronomical Twilight
Moon
Length of Visible Light
Length of Day
Tomorrow will be .
, % of the Moon is Illuminated

Today's Extremes

State Highs State Lows

Community

WunderPhotos

Upload Photos

1,766,492 photos uploaded!

WunderBlogs® & News

Nearby

Air Quality

  Air Quality AQ Index Pollutant
Not available.

Snow Depth

Station Depth Elevation

Earthquake Activity

City Distance Mag. Time & Date
Minimum magnitude displayed is 2.5.

Coastal Water Temperatures

Place Temperature

Nearby Weather Stations